Time;durP1;ratioP1;P1;durP2;ratioP2;P2;SDS_P1;SDS_P2;PMS_P1;PMS_P2;Temp;Humidity;BMP_temperature;BMP_pressure;BME280_temperature;BME280_humidity;BME280_pressure;Samples;Min_cycle;Max_cycle;Signal;HPM_P1;HPM_P2
2022/10/25 00:00:30;;;;;;;27.73;7.38;;;;;;;12.04;100.00;92790.19;4868274;29;20274;-78
2022/10/25 00:02:55;;;;;;;22.33;6.72;;;;;;;12.02;100.00;92784.47;4866588;29;20049;-79
2022/10/25 00:05:21;;;;;;;19.60;7.53;;;;;;;12.01;100.00;92775.81;4867514;29;20068;-79
2022/10/25 00:07:46;;;;;;;26.23;7.43;;;;;;;12.03;100.00;92765.03;4867748;29;20037;-78
2022/10/25 00:10:12;;;;;;;22.80;7.93;;;;;;;12.02;100.00;92760.84;4867204;29;20041;-78
2022/10/25 00:12:43;;;;;;;19.90;7.10;;;;;;;12.02;100.00;92764.28;4868492;29;20124;-78
2022/10/25 00:15:11;;;;;;;16.58;6.43;;;;;;;12.07;100.00;92769.41;4860432;29;20128;-78
2022/10/25 00:17:37;;;;;;;21.15;7.03;;;;;;;12.06;100.00;92773.09;4867072;29;20075;-79
2022/10/25 00:20:03;;;;;;;25.23;7.53;;;;;;;12.06;100.00;92769.69;4866230;29;20090;-79
2022/10/25 00:22:28;;;;;;;24.75;7.80;;;;;;;12.03;100.00;92765.81;4853992;29;20106;-79
2022/10/25 00:24:54;;;;;;;28.08;7.35;;;;;;;12.02;100.00;92760.84;4866311;29;20092;-79
2022/10/25 00:27:20;;;;;;;21.67;7.13;;;;;;;11.99;100.00;92766.69;4866631;29;20066;-79
2022/10/25 00:29:45;;;;;;;27.88;8.27;;;;;;;11.96;100.00;92783.00;4850491;29;20037;-79
2022/10/25 00:32:11;;;;;;;22.15;7.55;;;;;;;11.94;100.00;92791.16;4866158;29;20073;-79
2022/10/25 00:34:39;;;;;;;30.38;7.90;;;;;;;11.93;100.00;92784.31;4863159;29;20041;-78
2022/10/25 00:37:05;;;;;;;26.88;7.28;;;;;;;11.88;100.00;92787.81;4849519;29;20135;-79
2022/10/25 00:39:30;;;;;;;23.38;7.13;;;;;;;11.83;100.00;92784.47;4849432;29;20088;-78
2022/10/25 00:41:56;;;;;;;29.98;8.27;;;;;;;11.79;100.00;92780.84;4847719;29;20501;-78
2022/10/25 00:44:39;;;;;;;29.38;8.52;;;;;;;11.74;100.00;92776.47;4856522;29;20046;-78
2022/10/25 00:47:20;;;;;;;27.23;7.88;;;;;;;11.69;100.00;92781.81;4866872;29;20093;-78
2022/10/25 00:49:53;;;;;;;22.60;7.43;;;;;;;11.65;100.00;92778.19;4857455;29;20061;-78
2022/10/25 00:52:19;;;;;;;35.35;6.80;;;;;;;11.63;100.00;92786.31;4859551;29;20048;-78
2022/10/25 00:54:49;;;;;;;16.02;6.32;;;;;;;11.60;100.00;92775.66;4848513;29;20128;-78
2022/10/25 00:57:26;;;;;;;21.30;6.78;;;;;;;11.56;100.00;92767.56;4849876;29;20033;-78
2022/10/25 00:59:52;;;;;;;26.05;6.85;;;;;;;11.68;100.00;92767.13;4849346;29;20045;-78
2022/10/25 01:02:21;;;;;;;21.40;6.75;;;;;;;11.61;100.00;92769.31;4850531;29;20094;-78
2022/10/25 01:04:47;;;;;;;18.48;7.15;;;;;;;11.57;100.00;92770.94;4864896;29;20500;-79
2022/10/25 01:07:13;;;;;;;21.15;6.30;;;;;;;11.59;100.00;92774.06;4867406;29;20037;-78
2022/10/25 01:09:39;;;;;;;27.13;6.30;;;;;;;11.60;100.00;92775.66;4865443;29;20025;-79
2022/10/25 01:12:05;;;;;;;15.20;5.90;;;;;;;11.61;100.00;92772.72;4863535;29;20037;-78
2022/10/25 01:14:40;;;;;;;19.73;6.30;;;;;;;11.73;100.00;92780.16;4864489;29;20053;-78
2022/10/25 01:17:06;;;;;;;14.98;5.07;;;;;;;11.70;100.00;92770.22;4864037;29;20042;-78
2022/10/25 01:19:56;;;;;;;16.35;5.22;;;;;;;11.76;100.00;92778.81;4867003;29;20034;-78
2022/10/25 01:22:32;;;;;;;20.20;6.60;;;;;;;11.80;100.00;92769.31;4867182;29;20038;-78
2022/10/25 01:25:35;;;;;;;26.77;9.18;;;;;;;11.77;100.00;92770.66;4864617;29;20481;-78
2022/10/25 01:28:22;;;;;;;34.78;11.02;;;;;;;11.81;100.00;92769.00;4862865;29;20045;-78
2022/10/25 01:31:06;;;;;;;29.58;8.95;;;;;;;11.89;100.00;92770.25;4859192;29;20034;-77
2022/10/25 01:33:55;;;;;;;27.35;9.23;;;;;;;11.75;100.00;92772.78;4842929;29;20102;-77
2022/10/25 01:36:27;;;;;;;21.30;8.35;;;;;;;11.66;100.00;92780.53;4842639;29;20082;-78
2022/10/25 01:38:58;;;;;;;26.80;7.68;;;;;;;11.57;100.00;92773.56;4860790;29;20499;-78
2022/10/25 01:41:44;;;;;;;27.90;8.23;;;;;;;11.50;100.00;92773.16;4861733;29;20135;-77
2022/10/25 01:44:19;;;;;;;24.13;7.40;;;;;;;11.41;100.00;92767.78;4854873;29;20029;-78
2022/10/25 01:46:51;;;;;;;28.05;7.80;;;;;;;11.37;100.00;92767.56;4858994;29;20351;-78
2022/10/25 01:49:25;;;;;;;27.25;6.25;;;;;;;11.31;100.00;92763.47;4876792;29;20056;-77
2022/10/25 01:51:51;;;;;;;22.83;5.93;;;;;;;11.24;100.00;92765.66;4860625;29;20517;-78
2022/10/25 01:54:23;;;;;;;17.75;5.80;;;;;;;11.17;100.00;92762.63;4862595;29;20037;-77
2022/10/25 01:57:26;;;;;;;18.77;5.47;;;;;;;11.11;100.00;92763.72;4855991;29;20029;-77
2022/10/25 02:00:05;;;;;;;19.45;5.38;;;;;;;11.02;100.00;92766.97;4842995;29;20437;-78
2022/10/25 02:03:02;;;;;;;17.15;5.40;;;;;;;10.95;100.00;92761.31;4853107;29;20113;-78
2022/10/25 02:05:31;;;;;;;18.60;5.82;;;;;;;10.91;100.00;92756.91;4859665;29;20073;-78
2022/10/25 02:08:17;;;;;;;15.02;5.25;;;;;;;10.84;100.00;92758.03;4859697;29;20071;-78
2022/10/25 02:11:16;;;;;;;15.88;5.88;;;;;;;10.81;100.00;92758.59;4861582;29;20069;-78
2022/10/25 02:13:58;;;;;;;17.80;6.20;;;;;;;10.75;100.00;92758.94;4854772;29;20094;-78
2022/10/25 02:16:49;;;;;;;14.48;4.93;;;;;;;10.73;100.00;92763.66;4841312;29;20049;-77
2022/10/25 02:19:24;;;;;;;15.25;5.90;;;;;;;10.68;100.00;92761.13;4842080;29;20049;-78
2022/10/25 02:21:52;;;;;;;19.90;6.63;;;;;;;10.68;100.00;92755.88;4841522;29;20041;-77
2022/10/25 02:24:22;;;;;;;15.68;5.75;;;;;;;10.64;100.00;92753.03;4859756;29;20479;-77
2022/10/25 02:26:49;;;;;;;18.88;5.18;;;;;;;10.60;100.00;92752.81;4854968;29;20481;-77
2022/10/25 02:29:18;;;;;;;22.35;6.22;;;;;;;10.57;100.00;92753.34;4841998;29;20045;-78
2022/10/25 02:31:44;;;;;;;21.60;5.43;;;;;;;10.55;100.00;92763.31;4843838;29;20496;-78
2022/10/25 02:34:10;;;;;;;26.30;5.72;;;;;;;10.53;100.00;92760.22;4859912;29;20554;-77
2022/10/25 02:36:35;;;;;;;18.00;5.57;;;;;;;10.53;100.00;92760.22;4860844;29;20064;-77
2022/10/25 02:39:03;;;;;;;21.10;6.65;;;;;;;10.51;100.00;92757.09;4859497;29;20053;-77
2022/10/25 02:41:28;;;;;;;25.00;5.95;;;;;;;10.51;100.00;92759.69;4860600;29;20068;-77
2022/10/25 02:43:54;;;;;;;21.58;6.03;;;;;;;10.49;100.00;92756.59;4860132;29;20041;-78
2022/10/25 02:46:21;;;;;;;21.23;6.53;;;;;;;10.48;100.00;92759.50;4859674;29;20415;-78
2022/10/25 02:48:48;;;;;;;17.73;5.68;;;;;;;10.45;100.00;92762.66;4844627;29;20531;-78
2022/10/25 02:51:14;;;;;;;21.10;6.95;;;;;;;10.43;100.00;92759.56;4859350;29;20070;-77
2022/10/25 02:53:40;;;;;;;22.10;6.47;;;;;;;10.40;100.00;92763.47;4861334;29;20057;-78
2022/10/25 02:56:12;;;;;;;24.20;6.38;;;;;;;10.37;100.00;92759.59;4856850;29;20046;-77
2022/10/25 02:58:39;;;;;;;18.50;5.25;;;;;;;10.34;100.00;92756.75;4840888;29;20045;-77
2022/10/25 03:01:05;;;;;;;16.05;6.32;;;;;;;10.32;100.00;92759.66;4841086;29;20101;-77
2022/10/25 03:03:31;;;;;;;17.27;5.07;;;;;;;10.30;100.00;92764.38;4857546;29;20041;-77
2022/10/25 03:05:57;;;;;;;17.77;5.00;;;;;;;10.27;100.00;92754.44;4859325;29;20513;-78
2022/10/25 03:08:24;;;;;;;21.23;6.25;;;;;;;10.24;100.00;92752.34;4874700;29;20037;-77
2022/10/25 03:10:50;;;;;;;25.67;6.95;;;;;;;10.23;100.00;92750.03;4859746;29;20041;-77
2022/10/25 03:13:16;;;;;;;20.98;6.65;;;;;;;10.18;100.00;92743.78;4870634;29;20049;-77
2022/10/25 03:15:42;;;;;;;15.82;5.70;;;;;;;10.15;100.00;92752.19;4842224;29;20042;-78
2022/10/25 03:18:09;;;;;;;22.17;5.30;;;;;;;10.14;100.00;92750.63;4841855;29;20492;-77
2022/10/25 03:20:34;;;;;;;14.57;5.00;;;;;;;10.10;100.00;92752.22;4875791;29;20041;-77
2022/10/25 03:23:00;;;;;;;19.48;5.65;;;;;;;10.07;100.00;92746.78;4859804;29;20120;-78
2022/10/25 03:25:26;;;;;;;22.35;6.07;;;;;;;10.09;100.00;92750.69;4878093;29;20048;-77
2022/10/25 03:27:51;;;;;;;20.20;5.50;;;;;;;10.08;100.00;92748.34;4846500;29;20068;-78
2022/10/25 03:30:17;;;;;;;22.08;5.70;;;;;;;10.06;100.00;92746.00;4846476;29;20034;-77
2022/10/25 03:32:42;;;;;;;22.88;5.25;;;;;;;10.04;100.00;92750.72;4852622;29;20112;-78
2022/10/25 03:35:08;;;;;;;17.88;5.35;;;;;;;10.04;100.00;92748.09;4862490;29;20038;-78
2022/10/25 03:37:34;;;;;;;19.50;5.18;;;;;;;10.00;100.00;92745.28;4861522;29;20033;-78
2022/10/25 03:39:59;;;;;;;17.17;5.35;;;;;;;9.99;100.00;92751.53;4855439;29;20042;-77
2022/10/25 03:42:25;;;;;;;18.10;5.13;;;;;;;9.95;100.00;92752.38;4856546;29;20052;-78
2022/10/25 03:44:51;;;;;;;14.38;4.43;;;;;;;9.93;100.00;92752.66;4843935;29;20080;-77
2022/10/25 03:47:17;;;;;;;15.93;5.32;;;;;;;9.94;100.00;92753.44;4843651;29;20408;-77
2022/10/25 03:49:43;;;;;;;16.85;5.13;;;;;;;9.90;100.00;92747.19;4845148;29;20050;-77
2022/10/25 03:52:09;;;;;;;15.82;4.57;;;;;;;9.89;100.00;92756.09;4861544;29;20038;-77
2022/10/25 03:54:35;;;;;;;21.55;5.53;;;;;;;9.90;100.00;92757.66;4861777;29;20048;-77
2022/10/25 03:57:00;;;;;;;12.27;4.45;;;;;;;9.88;100.00;92760.53;4858333;29;20504;-77
2022/10/25 03:59:27;;;;;;;13.57;4.90;;;;;;;9.88;100.00;92762.38;4843793;29;20061;-77
2022/10/25 04:01:52;;;;;;;23.00;4.95;;;;;;;9.87;100.00;92766.06;4857524;29;20075;-77
2022/10/25 04:04:18;;;;;;;17.20;5.97;;;;;;;9.86;100.00;92770.50;4851495;29;20524;-78
2022/10/25 04:06:44;;;;;;;18.80;5.70;;;;;;;9.88;100.00;92772.84;4857675;29;20029;-77
2022/10/25 04:09:09;;;;;;;19.48;5.75;;;;;;;9.87;100.00;92768.66;4858631;29;20037;-78
2022/10/25 04:11:35;;;;;;;20.98;5.20;;;;;;;9.89;100.00;92767.34;4852495;29;20460;-77
2022/10/25 04:14:00;;;;;;;14.60;6.10;;;;;;;9.87;100.00;92768.66;4869813;29;20499;-76
2022/10/25 04:16:26;;;;;;;13.68;5.78;;;;;;;9.84;100.00;92774.44;4862522;29;20037;-77
2022/10/25 04:18:52;;;;;;;17.70;5.65;;;;;;;9.81;100.00;92773.16;4860570;29;20041;-78
2022/10/25 04:21:19;;;;;;;13.27;5.13;;;;;;;9.79;100.00;92773.44;4858167;29;20033;-76
2022/10/25 04:23:44;;;;;;;14.95;6.10;;;;;;;9.78;100.00;92773.69;4857494;29;20445;-77
2022/10/25 04:26:13;;;;;;;16.15;4.60;;;;;;;9.74;100.00;92776.06;4857445;29;20129;-77
2022/10/25 04:28:38;;;;;;;14.13;5.07;;;;;;;9.69;100.00;92778.72;4851773;29;20462;-78
2022/10/25 04:31:04;;;;;;;15.68;4.82;;;;;;;9.65;100.00;92782.94;4842987;29;20037;-77
2022/10/25 04:33:29;;;;;;;23.70;6.78;;;;;;;9.61;100.00;92781.91;4849278;29;20128;-77
2022/10/25 04:35:56;;;;;;;24.55;6.70;;;;;;;9.59;100.00;92787.44;4854284;29;20061;-76
2022/10/25 04:38:22;;;;;;;16.20;6.07;;;;;;;9.58;100.00;92782.47;4851046;29;20092;-77
2022/10/25 04:40:59;;;;;;;13.32;4.97;;;;;;;9.56;100.00;92776.72;4849551;29;20061;-76
2022/10/25 04:43:26;;;;;;;18.75;5.65;;;;;;;9.59;100.00;92781.41;4841708;29;20038;-77
2022/10/25 04:45:53;;;;;;;20.08;6.00;;;;;;;9.57;100.00;92778.31;4840597;29;20073;-77
2022/10/25 04:48:19;;;;;;;20.45;5.25;;;;;;;9.55;100.00;92783.81;4841950;29;20038;-76
2022/10/25 04:50:45;;;;;;;13.95;4.80;;;;;;;9.55;100.00;92790.88;4846924;29;20531;-77
2022/10/25 04:53:11;;;;;;;10.85;4.97;;;;;;;9.54;100.00;92786.69;4840448;29;20136;-77
2022/10/25 04:55:36;;;;;;;12.88;5.03;;;;;;;9.53;100.00;92785.13;4840222;29;20041;-76
2022/10/25 04:58:02;;;;;;;17.52;5.40;;;;;;;9.51;100.00;92790.63;4840288;29;20030;-77
2022/10/25 05:00:28;;;;;;;13.77;4.60;;;;;;;9.50;100.00;92790.88;4840318;29;20106;-78
2022/10/25 05:02:54;;;;;;;10.90;4.68;;;;;;;9.49;100.00;92791.94;4852637;29;20619;-77
2022/10/25 05:05:22;;;;;;;13.32;4.60;;;;;;;9.47;100.00;92791.44;4855877;29;20038;-77
2022/10/25 05:07:48;;;;;;;17.25;5.03;;;;;;;9.46;100.00;92795.09;4857428;29;20053;-77
2022/10/25 05:10:14;;;;;;;15.20;4.82;;;;;;;9.44;100.00;92800.59;4839936;29;20062;-77
2022/10/25 05:12:39;;;;;;;15.52;5.10;;;;;;;9.46;100.00;92795.09;4856104;29;20044;-76
2022/10/25 05:15:05;;;;;;;17.60;5.10;;;;;;;9.44;100.00;92792.75;4858353;29;20045;-77
2022/10/25 05:17:31;;;;;;;17.38;6.38;;;;;;;9.42;100.00;92789.63;4849236;29;20063;-76
2022/10/25 05:19:57;;;;;;;15.13;5.35;;;;;;;9.42;100.00;92800.09;4849152;29;20120;-76
2022/10/25 05:22:23;;;;;;;14.95;5.97;;;;;;;9.42;100.00;92801.91;4846210;29;20065;-78
2022/10/25 05:24:49;;;;;;;14.07;5.97;;;;;;;9.43;100.00;92798.25;4842986;29;20041;-76
2022/10/25 05:27:14;;;;;;;24.05;6.03;;;;;;;9.42;100.00;92802.69;4849045;29;20117;-77
2022/10/25 05:29:40;;;;;;;19.70;6.00;;;;;;;9.41;100.00;92802.97;4856237;29;20524;-76
2022/10/25 05:32:06;;;;;;;16.92;6.00;;;;;;;9.42;100.00;92807.91;4849116;29;20492;-77
2022/10/25 05:34:31;;;;;;;18.00;6.20;;;;;;;9.41;100.00;92802.97;4846881;29;20682;-77
2022/10/25 05:36:57;;;;;;;21.27;6.88;;;;;;;9.43;100.00;92806.09;4844343;29;20042;-76
2022/10/25 05:39:23;;;;;;;13.98;5.90;;;;;;;9.42;100.00;92820.22;4857018;29;20067;-76
2022/10/25 05:41:48;;;;;;;18.48;5.93;;;;;;;9.41;100.00;92818.63;4858514;29;20041;-77
2022/10/25 05:44:15;;;;;;;12.85;5.07;;;;;;;9.40;100.00;92817.09;4859956;29;20053;-77
2022/10/25 05:46:42;;;;;;;16.40;4.32;;;;;;;9.37;100.00;92819.19;4860091;29;20049;-77
2022/10/25 05:49:08;;;;;;;13.07;5.15;;;;;;;9.37;100.00;92823.63;4842502;29;20041;-77
2022/10/25 05:51:34;;;;;;;15.20;4.60;;;;;;;9.37;100.00;92824.41;4860377;29;20033;-77
2022/10/25 05:54:04;;;;;;;16.95;4.75;;;;;;;9.35;100.00;92826.50;4861160;29;20047;-77
2022/10/25 05:56:31;;;;;;;17.38;5.03;;;;;;;9.33;100.00;92833.84;4861362;29;20101;-77
2022/10/25 05:59:01;;;;;;;11.00;4.95;;;;;;;9.34;100.00;92835.41;4860237;29;20175;-77
2022/10/25 06:01:26;;;;;;;13.43;4.65;;;;;;;9.33;100.00;92833.84;4856055;29;20488;-78
2022/10/25 06:03:53;;;;;;;11.35;4.53;;;;;;;9.34;100.00;92838.03;4854288;29;20049;-77
2022/10/25 06:06:20;;;;;;;12.05;4.20;;;;;;;9.38;100.00;92843.47;4854168;29;20048;-78
2022/10/25 06:08:46;;;;;;;12.50;4.32;;;;;;;9.44;100.00;92846.84;4841665;29;20041;-77
2022/10/25 06:11:18;;;;;;;12.95;4.40;;;;;;;9.74;100.00;92849.28;4852289;29;20049;-77
2022/10/25 06:13:44;;;;;;;16.65;4.72;;;;;;;10.09;100.00;92847.47;4872644;29;20089;-77
2022/10/25 06:16:12;;;;;;;11.20;4.65;;;;;;;10.52;100.00;92855.50;4849450;29;20098;-78
2022/10/25 06:18:38;;;;;;;10.90;4.15;;;;;;;10.92;100.00;92850.94;4845604;29;20507;-77
2022/10/25 06:21:09;;;;;;;11.52;4.18;;;;;;;11.45;100.00;92861.28;4857161;29;20132;-77
2022/10/25 06:23:35;;;;;;;18.10;4.68;;;;;;;12.10;100.00;92865.16;4854488;29;20438;-77
2022/10/25 06:26:05;;;;;;;13.25;4.15;;;;;;;12.73;100.00;92863.09;4843329;29;20465;-77
2022/10/25 06:28:32;;;;;;;12.25;3.50;;;;;;;13.42;100.00;92868.38;4844262;29;20041;-77
2022/10/25 06:31:09;;;;;;;9.20;3.50;;;;;;;13.87;100.00;92874.56;4872528;29;20038;-77
2022/10/25 06:33:35;;;;;;;10.35;3.80;;;;;;;14.10;100.00;92883.28;4858938;29;20116;-77
2022/10/25 06:36:02;;;;;;;13.52;3.50;;;;;;;14.71;100.00;92881.06;4845920;29;20109;-77
2022/10/25 06:38:28;;;;;;;10.82;4.13;;;;;;;15.39;100.00;92886.19;4852675;29;20034;-78
2022/10/25 06:41:02;;;;;;;12.02;4.10;;;;;;;16.18;100.00;92892.41;4847220;29;20026;-78
2022/10/25 06:43:28;;;;;;;16.85;4.53;;;;;;;16.68;100.00;92899.81;4854975;29;20541;-79
2022/10/25 06:45:55;;;;;;;17.92;4.30;;;;;;;17.37;100.00;92890.19;4863340;29;20084;-77
2022/10/25 06:48:21;;;;;;;11.23;3.90;;;;;;;18.07;91.98;92893.25;4863613;29;20062;-78
2022/10/25 06:50:47;;;;;;;18.30;4.15;;;;;;;18.55;89.88;92891.16;4870060;29;20052;-78
2022/10/25 06:53:13;;;;;;;15.82;4.57;;;;;;;19.15;81.72;92892.47;4868871;29;20038;-78
2022/10/25 06:55:41;;;;;;;21.60;4.43;;;;;;;19.74;83.86;92892.09;4866537;29;20026;-78
2022/10/25 06:58:07;;;;;;;15.98;4.00;;;;;;;20.14;80.82;92902.00;4861495;29;20412;-79
2022/10/25 07:00:32;;;;;;;14.80;4.20;;;;;;;20.87;75.70;92907.44;4859932;29;20046;-79
2022/10/25 07:02:59;;;;;;;12.23;4.10;;;;;;;21.93;69.92;92902.44;4862022;29;20049;-78
2022/10/25 07:05:25;;;;;;;12.35;3.65;;;;;;;21.96;64.55;92902.53;4856793;29;20105;-79
2022/10/25 07:07:52;;;;;;;14.88;4.13;;;;;;;21.87;67.34;92906.53;4869943;29;20034;-80
2022/10/25 07:10:18;;;;;;;12.43;3.90;;;;;;;22.78;63.76;92902.72;4868902;29;20340;-79
2022/10/25 07:12:44;;;;;;;19.42;4.60;;;;;;;22.88;62.28;92902.16;4888614;29;20129;-79
2022/10/25 07:15:11;;;;;;;17.50;3.90;;;;;;;23.53;56.97;92908.66;4869346;29;20101;-79
2022/10/25 07:17:38;;;;;;;21.20;4.05;;;;;;;23.54;56.56;92908.31;4836983;29;20041;-79
2022/10/25 07:20:04;;;;;;;15.68;3.65;;;;;;;23.37;57.38;92916.78;4887552;29;20056;-79
2022/10/25 07:22:29;;;;;;;22.42;4.85;;;;;;;24.18;55.29;92911.19;4872644;29;20064;-79
2022/10/25 07:24:55;;;;;;;16.98;4.32;;;;;;;23.85;57.26;92911.88;4872982;29;20057;-79
2022/10/25 07:27:21;;;;;;;19.10;4.70;;;;;;;23.92;58.52;92919.25;4873795;29;20041;-79
2022/10/25 07:29:47;;;;;;;11.93;3.70;;;;;;;24.44;54.84;92923.03;4872921;29;20408;-79
2022/10/25 07:32:13;;;;;;;28.40;4.55;;;;;;;25.02;53.31;92927.97;4872702;29;20034;-79
2022/10/25 07:34:38;;;;;;;15.60;5.38;;;;;;;24.95;53.83;92930.56;4872947;29;20069;-79
2022/10/25 07:37:05;;;;;;;18.65;5.65;;;;;;;24.79;53.80;92935.34;4870268;29;20041;-79
2022/10/25 07:39:31;;;;;;;24.52;5.63;;;;;;;24.49;55.52;92934.19;4869577;29;20903;-79
2022/10/25 07:41:56;;;;;;;13.43;4.85;;;;;;;23.46;56.17;92936.81;4852950;29;20061;-79
2022/10/25 07:44:22;;;;;;;18.67;4.93;;;;;;;22.79;60.11;92931.75;4834084;29;20073;-79
2022/10/25 07:46:49;;;;;;;23.20;5.30;;;;;;;22.29;63.82;92930.72;4849539;29;20086;-79
2022/10/25 07:49:14;;;;;;;25.70;6.10;;;;;;;21.81;65.20;92933.41;4850474;29;20045;-79
2022/10/25 07:51:40;;;;;;;22.15;5.63;;;;;;;21.17;64.52;92937.16;4849419;29;20045;-78
2022/10/25 07:54:06;;;;;;;15.38;4.72;;;;;;;21.07;66.26;92941.06;4848031;29;20093;-78
2022/10/25 07:56:32;;;;;;;14.65;4.70;;;;;;;20.85;69.06;92939.75;4847719;29;20056;-78
2022/10/25 07:58:57;;;;;;;10.32;3.42;;;;;;;20.41;61.61;92934.28;4847695;29;20034;-78
2022/10/25 08:01:26;;;;;;;12.73;3.30;;;;;;;19.74;61.81;92945.19;4848040;29;20041;-78
2022/10/25 08:03:52;;;;;;;12.98;3.72;;;;;;;19.28;72.74;92943.69;4846581;29;20034;-78
2022/10/25 08:06:22;;;;;;;12.65;3.72;;;;;;;19.12;72.43;92939.00;4846798;29;20066;-78
2022/10/25 08:08:48;;;;;;;13.73;4.03;;;;;;;19.24;72.98;92950.75;4861665;29;20037;-78
2022/10/25 08:11:14;;;;;;;11.38;4.38;;;;;;;18.96;75.87;92950.56;4864662;29;20037;-78
2022/10/25 08:13:40;;;;;;;15.05;3.78;;;;;;;18.47;71.28;92949.22;4864636;29;20542;-78
2022/10/25 08:16:06;;;;;;;11.07;3.60;;;;;;;18.17;75.38;92950.38;4848888;29;20045;-78
2022/10/25 08:18:32;;;;;;;14.25;3.60;;;;;;;17.43;74.43;92945.25;4845431;29;20082;-77
2022/10/25 08:21:00;;;;;;;15.93;4.20;;;;;;;17.74;88.36;92944.19;4861238;29;20720;-78
2022/10/25 08:23:26;;;;;;;16.17;5.63;;;;;;;18.14;80.98;92953.66;4860279;29;20058;-77
2022/10/25 08:25:52;;;;;;;13.30;4.90;;;;;;;18.68;80.72;92948.44;4845027;29;20106;-77
2022/10/25 08:28:19;;;;;;;19.45;5.43;;;;;;;18.71;81.80;92947.78;4858061;29;20450;-77
2022/10/25 08:30:44;;;;;;;17.42;4.35;;;;;;;18.69;79.37;92950.78;4864448;29;20045;-77
2022/10/25 08:33:10;;;;;;;17.45;5.28;;;;;;;18.86;83.88;92944.56;4864445;29;20041;-78
2022/10/25 08:35:36;;;;;;;10.43;4.32;;;;;;;18.69;79.28;92948.13;4848006;29;20037;-78
2022/10/25 08:38:03;;;;;;;15.45;4.25;;;;;;;18.67;80.88;92949.56;4862739;29;20412;-78
2022/10/25 08:40:55;;;;;;;16.85;5.32;;;;;;;18.21;83.51;92948.63;4863949;29;20365;-77
2022/10/25 08:43:49;;;;;;;14.52;5.22;;;;;;;18.18;82.56;92951.94;4852721;29;20038;-78
2022/10/25 08:46:22;;;;;;;13.45;4.35;;;;;;;18.42;78.24;92954.72;4849813;29;20087;-78
2022/10/25 08:49:17;;;;;;;17.15;5.63;;;;;;;18.12;83.98;92956.63;4852358;29;20278;-78
2022/10/25 08:51:46;;;;;;;16.23;5.35;;;;;;;18.45;85.17;92955.97;4835944;29;20061;-78
2022/10/25 08:54:24;;;;;;;15.15;5.00;;;;;;;18.21;81.03;92956.56;4850896;29;20026;-78
2022/10/25 08:57:22;;;;;;;20.42;5.05;;;;;;;18.25;81.81;92958.25;4849615;29;20041;-78
2022/10/25 09:00:09;;;;;;;19.25;4.88;;;;;;;18.12;84.16;92966.47;4849363;29;20045;-78
2022/10/25 09:02:40;;;;;;;9.32;4.30;;;;;;;18.01;82.13;92968.69;4850018;29;20046;-78
2022/10/25 09:05:32;;;;;;;15.63;5.50;;;;;;;17.98;84.04;92967.47;4850155;29;20085;-78
2022/10/25 09:08:09;;;;;;;13.95;4.75;;;;;;;17.81;82.61;92967.50;4830747;29;20110;-78
2022/10/25 09:10:48;;;;;;;14.20;5.20;;;;;;;18.07;85.16;92967.41;4849358;29;20030;-78
2022/10/25 09:13:28;;;;;;;13.23;4.93;;;;;;;17.81;85.62;92967.50;4863367;29;20080;-78
2022/10/25 09:16:01;;;;;;;11.82;4.32;;;;;;;17.75;81.81;92971.47;4865723;29;20037;-78
2022/10/25 09:18:48;;;;;;;11.90;4.13;;;;;;;17.75;83.03;92968.81;4850154;29;20137;-78
2022/10/25 09:21:37;;;;;;;15.93;5.30;;;;;;;18.08;76.22;92972.41;4867392;29;20503;-78
2022/10/25 09:24:35;;;;;;;18.95;4.70;;;;;;;17.74;81.00;92969.88;4860952;29;20069;-78
2022/10/25 09:27:04;;;;;;;10.52;4.60;;;;;;;17.84;82.95;92972.22;4868891;29;20449;-78
2022/10/25 09:29:32;;;;;;;14.48;4.30;;;;;;;18.06;77.19;92974.59;4866918;29;20563;-78
2022/10/25 09:31:59;;;;;;;11.10;5.05;;;;;;;18.19;76.72;92980.75;4867058;29;20108;-79
2022/10/25 09:34:29;;;;;;;15.82;5.78;;;;;;;18.52;80.46;92975.53;4868894;29;20042;-78
2022/10/25 09:37:05;;;;;;;14.90;5.88;;;;;;;19.28;74.21;92978.19;4866729;29;20090;-78
2022/10/25 09:39:39;;;;;;;22.40;6.18;;;;;;;19.64;71.66;92977.50;4866871;29;20248;-78
2022/10/25 09:42:12;;;;;;;15.35;6.05;;;;;;;19.61;78.34;92983.47;4865782;29;20037;-78
2022/10/25 09:44:42;;;;;;;18.27;6.40;;;;;;;19.22;78.58;92987.47;4866109;29;20065;-78
2022/10/25 09:47:17;;;;;;;14.68;6.18;;;;;;;18.94;79.99;92977.44;4866182;29;20064;-78
2022/10/25 09:49:51;;;;;;;18.95;6.28;;;;;;;18.61;82.22;92980.00;4866046;29;20049;-78
2022/10/25 09:52:25;;;;;;;18.85;6.43;;;;;;;18.45;81.03;92979.81;4867019;29;20408;-78
2022/10/25 09:55:00;;;;;;;15.93;5.10;;;;;;;18.35;82.17;92978.31;4865622;29;20037;-78
2022/10/25 09:57:26;;;;;;;16.45;5.20;;;;;;;18.02;84.92;92983.50;4852635;29;20482;-78
2022/10/25 09:59:52;;;;;;;17.90;5.85;;;;;;;17.83;89.79;92978.59;4848970;29;20164;-78
2022/10/25 10:02:23;;;;;;;16.38;5.15;;;;;;;17.97;80.95;92987.13;4847676;29;20038;-78
2022/10/25 10:04:49;;;;;;;19.42;5.47;;;;;;;17.91;79.79;92993.69;4848055;29;20037;-78
2022/10/25 10:07:32;;;;;;;17.35;5.53;;;;;;;18.06;82.51;92992.38;4848266;29;20459;-78
2022/10/25 10:10:02;;;;;;;13.02;4.93;;;;;;;18.28;83.78;92999.22;4847614;29;20042;-78
2022/10/25 10:12:47;;;;;;;15.93;5.30;;;;;;;18.49;79.47;92993.97;4876701;29;20033;-78
2022/10/25 10:15:19;;;;;;;16.40;5.47;;;;;;;18.30;79.99;92991.75;4865126;29;20049;-78
2022/10/25 10:17:45;;;;;;;17.33;6.43;;;;;;;18.34;80.35;92990.00;4866553;29;20041;-78
2022/10/25 10:20:16;;;;;;;16.10;5.60;;;;;;;18.41;79.57;92992.91;4866056;29;20036;-78
2022/10/25 10:22:53;;;;;;;21.52;6.28;;;;;;;18.33;81.12;92992.97;4867085;29;20519;-78
2022/10/25 10:25:26;;;;;;;17.35;5.53;;;;;;;18.50;80.79;92996.28;4864812;29;20443;-78
2022/10/25 10:27:55;;;;;;;12.93;5.15;;;;;;;18.15;83.82;92994.94;4862182;29;20038;-78
2022/10/25 10:30:27;;;;;;;16.00;5.20;;;;;;;18.11;85.52;92989.53;4851374;29;20448;-78
2022/10/25 10:32:59;;;;;;;13.05;5.30;;;;;;;18.09;86.63;92991.72;4851811;29;20038;-78
2022/10/25 10:35:35;;;;;;;14.20;5.82;;;;;;;17.86;88.78;92997.28;4850452;29;20037;-78
2022/10/25 10:38:27;;;;;;;13.50;6.00;;;;;;;18.01;84.84;92998.63;4850808;29;20630;-78
2022/10/25 10:41:14;;;;;;;15.07;4.95;;;;;;;18.07;84.84;92994.69;4848754;29;20408;-78
2022/10/25 10:43:40;;;;;;;17.63;5.72;;;;;;;18.16;85.84;92994.63;4849576;29;20050;-78
2022/10/25 10:46:14;;;;;;;12.35;4.80;;;;;;;18.17;84.35;92998.06;4865562;29;20161;-78
2022/10/25 10:48:42;;;;;;;19.40;6.80;;;;;;;18.31;82.71;92993.31;4850983;29;20517;-78
2022/10/25 10:51:09;;;;;;;16.63;6.15;;;;;;;18.56;81.21;92993.47;4851169;29;20436;-79
2022/10/25 10:53:35;;;;;;;24.98;5.88;;;;;;;18.41;79.61;93000.09;4865292;29;20046;-78
2022/10/25 10:56:04;;;;;;;16.50;5.60;;;;;;;18.15;81.16;93001.03;4857117;29;20034;-78
2022/10/25 10:58:40;;;;;;;31.13;11.98;;;;;;;18.03;86.11;92999.06;4868846;29;20059;-78
2022/10/25 11:01:09;;;;;;;23.38;9.32;;;;;;;18.28;85.15;93009.84;4867155;29;20045;-78
2022/10/25 11:03:41;;;;;;;28.90;9.63;;;;;;;18.17;83.02;93003.34;4868080;29;20040;-78
2022/10/25 11:06:14;;;;;;;27.88;9.07;;;;;;;18.31;85.21;92998.63;4868637;29;20064;-78
2022/10/25 11:08:41;;;;;;;24.10;9.52;;;;;;;18.31;84.51;92998.63;4867760;29;20037;-78
2022/10/25 11:11:23;;;;;;;31.38;10.82;;;;;;;17.88;86.04;93000.38;4856983;29;20041;-77
2022/10/25 11:13:52;;;;;;;22.00;9.20;;;;;;;17.84;86.58;92996.06;4849064;29;20038;-78
2022/10/25 11:16:42;;;;;;;31.63;10.98;;;;;;;17.55;89.23;93005.47;4848714;29;20041;-78
2022/10/25 11:19:39;;;;;;;31.75;10.48;;;;;;;17.57;91.56;93005.16;4848921;29;20046;-78
2022/10/25 11:22:32;;;;;;;28.20;8.60;;;;;;;17.26;91.79;93004.28;4833101;29;20081;-78
2022/10/25 11:25:16;;;;;;;;;;;;;;;17.14;93.23;92993.59;4849729;29;20522;-78
2022/10/25 11:28:19;;;;;;;27.10;10.75;;;;;;;17.55;89.33;92989.59;4868899;29;19984;-78
2022/10/25 11:30:59;;;;;;;24.02;8.85;;;;;;;17.27;93.41;92991.84;4868239;29;20064;-78
2022/10/25 11:34:07;;;;;;;17.52;6.80;;;;;;;17.52;91.40;92989.44;4866909;29;20273;-77
2022/10/25 11:37:18;;;;;;;26.90;9.70;;;;;;;17.51;91.15;92991.31;4867969;29;20109;-78